createdAt,value
2018-09-12T00:04:09.238Z,3.77
2018-09-12T00:09:12.329Z,3.57
2018-09-12T00:14:14.858Z,4.07
2018-09-12T00:19:17.404Z,3.63
2018-09-12T00:24:19.941Z,3.70
2018-09-12T00:29:22.459Z,3.90
2018-09-12T00:34:25.003Z,3.97
2018-09-12T00:39:27.701Z,3.43
2018-09-12T00:44:30.255Z,3.70
2018-09-12T00:49:32.880Z,3.63
2018-09-12T00:54:35.445Z,3.83
2018-09-12T00:59:37.966Z,3.90
2018-09-12T01:04:40.464Z,3.97
2018-09-12T01:09:42.976Z,4.03
2018-09-12T01:14:45.510Z,3.50
2018-09-12T01:19:48.101Z,3.87
2018-09-12T01:24:50.733Z,3.77
2018-09-12T01:29:53.274Z,3.70
2018-09-12T01:34:55.814Z,4.10
2018-09-12T01:39:58.396Z,3.83
2018-09-12T01:45:00.927Z,4.20
2018-09-12T01:50:03.536Z,4.20
2018-09-12T01:55:06.308Z,3.57
2018-09-12T02:00:11.966Z,4.13
2018-09-12T02:05:14.665Z,3.90
2018-09-12T02:10:17.235Z,4.30
2018-09-12T02:15:19.751Z,4.60
2018-09-12T02:20:22.287Z,3.97
2018-09-12T02:25:24.811Z,4.30
2018-09-12T02:30:27.349Z,4.80
2018-09-12T02:35:29.932Z,4.30
2018-09-12T02:40:32.461Z,4.27
2018-09-12T02:45:34.984Z,4.23
2018-09-12T02:50:37.510Z,4.50
2018-09-12T02:55:40.093Z,4.37
2018-09-12T03:00:42.626Z,4.57
2018-09-12T03:05:45.130Z,4.67
2018-09-12T03:10:47.649Z,5.47
2018-09-12T03:15:50.184Z,4.80
2018-09-12T03:20:52.971Z,4.73
2018-09-12T03:25:55.388Z,4.33
2018-09-12T03:30:57.892Z,4.80
2018-09-12T03:36:00.424Z,4.87
2018-09-12T03:41:02.996Z,5.20
2018-09-12T03:46:05.603Z,5.00
2018-09-12T03:51:08.199Z,4.73
2018-09-12T03:56:10.732Z,4.80
2018-09-12T04:01:13.246Z,4.83
2018-09-12T04:06:15.819Z,5.27
2018-09-12T04:11:18.593Z,4.50
2018-09-12T04:16:21.179Z,5.10
2018-09-12T04:21:23.692Z,5.40
2018-09-12T04:26:27.282Z,4.93
2018-09-12T04:31:29.790Z,4.60
2018-09-12T04:36:32.357Z,4.50
2018-09-12T04:41:34.910Z,5.10
2018-09-12T04:46:37.620Z,5.13
2018-09-12T04:51:40.139Z,4.70
2018-09-12T04:56:42.671Z,4.67
2018-09-12T05:01:45.380Z,5.57
2018-09-12T05:06:48.132Z,6.08
2018-09-12T05:11:50.753Z,4.73
2018-09-12T05:16:53.469Z,4.80
2018-09-12T05:21:55.971Z,5.20
2018-09-12T05:26:58.723Z,5.27
2018-09-12T05:32:01.457Z,5.00
2018-09-12T05:37:04.113Z,5.33
2018-09-12T05:42:06.646Z,5.10
2018-09-12T05:47:09.277Z,5.07
2018-09-12T05:52:11.912Z,5.00
2018-09-12T05:57:14.454Z,5.37
2018-09-12T06:02:17.051Z,5.17
2018-09-12T06:07:19.900Z,5.00
2018-09-12T06:12:22.537Z,5.53
2018-09-12T06:17:25.059Z,5.53
2018-09-12T06:22:27.594Z,5.40
2018-09-12T06:27:30.490Z,4.67
2018-09-12T06:32:33.090Z,3.90
2018-09-12T06:37:35.678Z,4.10
2018-09-12T06:42:38.251Z,3.90
2018-09-12T06:47:40.857Z,4.60
2018-09-12T06:52:43.439Z,5.53
2018-09-12T06:57:45.954Z,5.17
2018-09-12T07:02:48.526Z,5.70
2018-09-12T07:07:51.220Z,7.50
2018-09-12T07:12:53.754Z,9.37
2018-09-12T07:17:56.292Z,9.93
2018-09-12T07:22:58.834Z,9.33
2018-09-12T07:28:01.356Z,10.10
2018-09-12T07:33:03.938Z,9.93
2018-09-12T07:38:06.508Z,8.60
2018-09-12T07:43:09.059Z,8.83
2018-09-12T07:48:11.631Z,7.00
2018-09-12T07:53:14.198Z,7.47
2018-09-12T07:58:16.763Z,7.40
2018-09-12T08:03:19.328Z,7.57
2018-09-12T08:08:21.974Z,6.50
2018-09-12T08:13:25.129Z,6.10
2018-09-12T08:18:27.695Z,5.40
2018-09-12T08:23:30.238Z,5.90
2018-09-12T08:28:32.776Z,6.03
2018-09-12T08:33:35.324Z,5.40
2018-09-12T08:38:37.867Z,5.30
2018-09-12T08:43:40.507Z,5.67
2018-09-12T08:48:43.098Z,5.53
2018-09-12T08:53:45.645Z,4.57
2018-09-12T08:58:48.199Z,4.87
2018-09-12T09:03:50.831Z,4.73
2018-09-12T09:08:53.408Z,4.93
2018-09-12T09:13:56.026Z,4.53
2018-09-12T09:18:58.572Z,4.10
2018-09-12T09:24:01.703Z,4.27
2018-09-12T09:29:04.243Z,4.17
2018-09-12T09:34:06.816Z,4.12
2018-09-12T09:39:10.708Z,3.77
2018-09-12T09:44:13.244Z,3.85
2018-09-12T09:49:15.872Z,3.77
2018-09-12T09:54:18.380Z,3.27
2018-09-12T09:59:20.935Z,3.45
2018-09-12T10:04:28.757Z,3.80
2018-09-12T10:09:32.543Z,3.02
2018-09-12T10:14:35.104Z,3.08
2018-09-12T10:19:37.647Z,3.47
2018-09-12T10:24:40.283Z,3.15
2018-09-12T10:29:42.843Z,3.10
2018-09-12T10:34:45.388Z,3.30
2018-09-12T10:39:47.919Z,3.15
2018-09-12T10:44:51.185Z,3.47
2018-09-12T10:49:53.795Z,3.52
2018-09-12T10:54:56.384Z,2.90
2018-09-12T10:59:58.953Z,2.95
2018-09-12T11:05:01.524Z,3.50
2018-09-12T11:10:04.155Z,2.65
2018-09-12T11:15:06.788Z,2.90
2018-09-12T11:20:09.374Z,2.60
2018-09-12T11:25:11.955Z,3.10
2018-09-12T11:30:14.508Z,2.58
2018-09-12T11:35:17.060Z,2.72
2018-09-12T11:40:19.600Z,2.90
2018-09-12T11:45:22.138Z,3.15
2018-09-12T11:50:24.728Z,2.98
2018-09-12T11:55:27.419Z,2.77
2018-09-12T12:00:29.985Z,3.08
2018-09-12T12:05:32.636Z,2.62
2018-09-12T12:10:35.314Z,2.92
2018-09-12T12:15:37.919Z,2.80
2018-09-12T12:20:40.475Z,2.65
2018-09-12T12:25:43.023Z,3.17
2018-09-12T12:30:45.570Z,2.70
2018-09-12T12:35:48.113Z,2.92
2018-09-12T12:40:50.686Z,3.20
2018-09-12T12:45:53.503Z,2.85
2018-09-12T12:50:56.233Z,2.98
2018-09-12T12:55:58.888Z,2.98
2018-09-12T13:01:01.576Z,3.40
2018-09-12T13:06:04.094Z,3.50
2018-09-12T13:11:06.626Z,3.17
2018-09-12T13:16:09.221Z,3.25
2018-09-12T13:21:11.844Z,3.10
2018-09-12T13:26:14.366Z,3.12
2018-09-12T13:31:16.913Z,3.00
2018-09-12T13:36:19.622Z,3.17
2018-09-12T13:41:22.243Z,2.95
2018-09-12T13:46:24.888Z,3.05
2018-09-12T13:51:27.490Z,3.10
2018-09-12T13:56:30.339Z,2.98
2018-09-12T14:01:32.979Z,3.45
2018-09-12T14:06:36.321Z,3.20
2018-09-12T14:11:38.907Z,3.55
2018-09-12T14:16:41.475Z,3.33
2018-09-12T14:21:44.032Z,3.35
2018-09-12T14:26:46.592Z,3.47
2018-09-12T14:31:49.155Z,3.27
2018-09-12T14:36:51.814Z,3.40
2018-09-12T14:41:54.612Z,3.17
2018-09-12T14:46:57.116Z,3.42
2018-09-12T14:51:59.709Z,3.30
2018-09-12T14:57:02.262Z,3.22
2018-09-12T15:02:04.913Z,3.30
2018-09-12T15:07:07.754Z,3.50
2018-09-12T15:12:10.324Z,2.62
2018-09-12T15:17:12.943Z,3.10
2018-09-12T15:22:15.511Z,3.42
2018-09-12T15:27:18.079Z,3.27
2018-09-12T15:32:20.658Z,3.22
2018-09-12T15:37:23.204Z,3.33
2018-09-12T15:42:26.044Z,2.95
2018-09-12T15:47:28.610Z,3.17
2018-09-12T15:52:31.219Z,3.55
2018-09-12T15:57:33.761Z,3.40
2018-09-12T16:02:36.438Z,3.12
2018-09-12T16:07:39.080Z,2.72
2018-09-12T16:12:41.700Z,3.08
2018-09-12T16:17:44.385Z,3.15
2018-09-12T16:22:47.028Z,3.00
2018-09-12T16:27:52.044Z,3.00
2018-09-12T16:32:54.626Z,3.33
2018-09-12T16:37:57.208Z,3.77
2018-09-12T16:42:59.758Z,3.42
2018-09-12T16:48:02.314Z,3.72
2018-09-12T16:53:04.910Z,3.40
2018-09-12T16:58:07.515Z,3.67
2018-09-12T17:03:10.092Z,3.07
2018-09-12T17:08:12.671Z,3.63
2018-09-12T17:13:15.221Z,4.33
2018-09-12T17:18:17.820Z,3.80
2018-09-12T17:23:20.374Z,3.80
2018-09-12T17:28:23.080Z,3.90
2018-09-12T17:33:25.661Z,4.27
2018-09-12T17:38:28.233Z,3.70
2018-09-12T17:43:30.819Z,3.60
2018-09-12T17:48:33.362Z,3.87
2018-09-12T17:53:35.896Z,4.60
2018-09-12T17:58:38.527Z,4.20
2018-09-12T18:03:41.137Z,4.70
2018-09-12T18:08:43.791Z,4.60
2018-09-12T18:13:46.447Z,4.20
2018-09-12T18:18:48.983Z,3.97
2018-09-12T18:23:52.133Z,4.43
2018-09-12T18:28:54.917Z,4.17
2018-09-12T18:33:57.451Z,3.93
2018-09-12T18:38:59.999Z,3.93
2018-09-12T18:44:02.588Z,4.00
2018-09-12T18:49:05.203Z,3.50
2018-09-12T18:54:08.157Z,4.63
2018-09-12T18:59:10.576Z,4.30
2018-09-12T19:04:13.205Z,3.93
2018-09-12T19:09:15.830Z,3.90
2018-09-12T19:14:18.431Z,3.93
2018-09-12T19:19:21.019Z,4.20
2018-09-12T19:24:23.575Z,4.27
2018-09-12T19:29:26.173Z,4.10
2018-09-12T19:34:28.728Z,4.40
2018-09-12T19:39:31.392Z,3.77
2018-09-12T19:44:33.978Z,4.57
2018-09-12T19:49:36.562Z,4.27
2018-09-12T19:54:39.180Z,4.40
2018-09-12T19:59:41.770Z,6.47
2018-09-12T20:04:44.310Z,5.30
2018-09-12T20:09:47.011Z,4.70
2018-09-12T20:14:50.470Z,4.90
2018-09-12T20:19:53.018Z,4.63
2018-09-12T20:24:56.556Z,4.10
2018-09-12T20:29:59.351Z,4.23
2018-09-12T20:35:01.922Z,3.90
2018-09-12T20:40:04.583Z,4.37
2018-09-12T20:45:07.238Z,4.47
2018-09-12T20:50:09.850Z,4.47
2018-09-12T20:55:12.484Z,4.43
2018-09-12T21:00:15.123Z,5.20
2018-09-12T21:05:17.662Z,5.50
2018-09-12T21:10:20.213Z,5.80
2018-09-12T21:15:22.785Z,5.13
2018-09-12T21:20:25.500Z,5.87
2018-09-12T21:25:28.074Z,5.93
2018-09-12T21:30:30.630Z,5.70
2018-09-12T21:35:33.248Z,6.20
2018-09-12T21:40:35.852Z,6.60
2018-09-12T21:45:38.400Z,6.73
2018-09-12T21:50:40.942Z,6.80
2018-09-12T21:55:43.464Z,6.67
2018-09-12T22:00:46.244Z,6.60
2018-09-12T22:05:48.772Z,6.53
2018-09-12T22:10:51.315Z,6.57
2018-09-12T22:15:54.835Z,6.67
2018-09-12T22:20:57.934Z,6.07
2018-09-12T22:26:00.484Z,6.87
2018-09-12T22:31:03.108Z,6.70
2018-09-12T22:36:05.677Z,7.27
2018-09-12T22:41:08.288Z,5.97
2018-09-12T22:46:10.834Z,6.30
2018-09-12T22:51:13.367Z,5.80
2018-09-12T22:56:15.899Z,5.67
2018-09-12T23:01:18.419Z,6.47
2018-09-12T23:06:20.952Z,6.17
2018-09-12T23:11:23.506Z,6.40
2018-09-12T23:16:26.025Z,6.10
2018-09-12T23:21:28.631Z,6.70
2018-09-12T23:26:31.164Z,6.20
2018-09-12T23:31:33.692Z,5.73
2018-09-12T23:36:37.079Z,6.47
2018-09-12T23:41:39.623Z,6.30
2018-09-12T23:46:42.183Z,6.20
2018-09-12T23:51:45.262Z,6.20
2018-09-12T23:56:47.853Z,6.57
